createdAt,value
2018-07-21T00:02:22.604Z,45.99
2018-07-21T00:04:50.011Z,46.52
2018-07-21T00:07:17.253Z,46.75
2018-07-21T00:09:44.525Z,46.58
2018-07-21T00:12:11.804Z,47.37
2018-07-21T00:14:39.059Z,47.32
2018-07-21T00:19:56.439Z,48.31
2018-07-21T00:22:23.752Z,48.22
2018-07-21T00:24:50.994Z,48.05
2018-07-21T00:27:18.203Z,49.30
2018-07-21T00:29:45.919Z,49.42
2018-07-21T00:32:13.905Z,49.31
2018-07-21T00:34:41.167Z,49.28
2018-07-21T00:37:08.428Z,49.77
2018-07-21T00:39:37.534Z,50.63
2018-07-21T00:42:04.895Z,50.86
2018-07-21T00:44:32.789Z,51.21
2018-07-21T00:47:00.058Z,51.99
2018-07-21T00:49:27.333Z,52.06
2018-07-21T00:51:54.609Z,52.27
2018-07-21T00:54:21.918Z,51.76
2018-07-21T00:56:49.207Z,51.56
2018-07-21T00:59:16.496Z,51.62
2018-07-21T01:01:44.055Z,52.04
2018-07-21T01:04:11.383Z,52.44
2018-07-21T01:06:38.749Z,52.50
2018-07-21T01:09:07.647Z,52.86
2018-07-21T01:11:34.924Z,52.99
2018-07-21T01:14:02.186Z,53.71
2018-07-21T01:16:29.506Z,53.84
2018-07-21T01:18:56.751Z,53.57
2018-07-21T01:21:24.031Z,52.94
2018-07-21T01:23:51.291Z,53.38
2018-07-21T01:26:18.606Z,53.20
2018-07-21T01:28:45.854Z,53.15
2018-07-21T01:31:13.125Z,53.35
2018-07-21T01:33:40.353Z,53.46
2018-07-21T01:36:07.622Z,53.26
2018-07-21T01:38:34.886Z,53.33
2018-07-21T01:41:02.210Z,53.29
2018-07-21T01:43:29.454Z,53.46
2018-07-21T01:45:56.793Z,53.21
2018-07-21T01:48:24.047Z,53.57
2018-07-21T01:50:51.307Z,54.16
2018-07-21T01:53:18.547Z,53.88
2018-07-21T01:55:45.872Z,54.23
2018-07-21T01:58:13.449Z,54.84
2018-07-21T02:00:41.218Z,54.69
2018-07-21T02:03:08.487Z,54.38
2018-07-21T02:05:35.798Z,54.61
2018-07-21T02:08:03.045Z,54.44
2018-07-21T02:10:30.275Z,54.20
2018-07-21T02:12:57.607Z,54.49
2018-07-21T02:15:24.879Z,54.49
2018-07-21T02:17:52.134Z,54.78
2018-07-21T02:20:19.370Z,54.50
2018-07-21T02:22:46.654Z,54.71
2018-07-21T02:25:13.855Z,55.72
2018-07-21T02:27:41.201Z,55.58
2018-07-21T02:30:08.426Z,56.23
2018-07-21T02:32:35.682Z,56.69
2018-07-21T02:35:02.944Z,56.40
2018-07-21T02:37:30.232Z,57.12
2018-07-21T02:39:57.458Z,57.71
2018-07-21T02:42:24.730Z,56.85
2018-07-21T02:44:52.206Z,57.22
2018-07-21T02:47:19.501Z,57.49
2018-07-21T02:49:46.780Z,56.74
2018-07-21T02:52:14.030Z,56.75
2018-07-21T02:54:41.314Z,56.62
2018-07-21T02:57:08.593Z,56.36
2018-07-21T02:59:35.903Z,56.62
2018-07-21T03:02:03.226Z,56.27
2018-07-21T03:04:30.463Z,56.54
2018-07-21T03:06:57.817Z,56.22
2018-07-21T03:09:25.194Z,56.30
2018-07-21T03:11:52.575Z,56.10
2018-07-21T03:14:20.485Z,56.26
2018-07-21T03:16:48.703Z,55.84
2018-07-21T03:19:17.437Z,56.07
2018-07-21T03:21:45.932Z,56.01
2018-07-21T03:24:14.576Z,55.97
2018-07-21T03:26:42.570Z,56.12
2018-07-21T03:29:10.026Z,55.97
2018-07-21T03:31:37.383Z,56.37
2018-07-21T03:34:04.888Z,56.16
2018-07-21T03:36:32.312Z,56.84
2018-07-21T03:38:59.729Z,56.55
2018-07-21T03:41:27.453Z,55.83
2018-07-21T03:43:55.461Z,56.44
2018-07-21T03:46:22.770Z,57.02
2018-07-21T03:48:50.113Z,57.15
2018-07-21T03:51:18.052Z,56.88
2018-07-21T03:53:45.421Z,56.64
2018-07-21T03:56:12.723Z,56.87
2018-07-21T03:58:40.068Z,56.13
2018-07-21T04:01:07.362Z,55.36
2018-07-21T04:03:34.923Z,55.18
2018-07-21T04:06:02.288Z,54.89
2018-07-21T04:08:29.741Z,54.61
2018-07-21T04:10:58.205Z,55.24
2018-07-21T04:13:25.570Z,55.22
2018-07-21T04:15:53.128Z,55.00
2018-07-21T04:18:21.438Z,55.66
2018-07-21T04:20:48.775Z,55.20
2018-07-21T04:23:16.168Z,55.61
2018-07-21T04:25:44.256Z,55.18
2018-07-21T04:28:11.625Z,55.51
2018-07-21T04:30:38.983Z,55.69
2018-07-21T04:33:06.959Z,55.18
2018-07-21T04:35:34.300Z,54.69
2018-07-21T04:38:01.880Z,55.19
2018-07-21T04:40:29.200Z,55.83
2018-07-21T04:42:56.575Z,56.05
2018-07-21T04:45:23.960Z,55.69
2018-07-21T04:47:51.293Z,55.56
2018-07-21T04:50:18.602Z,55.83
2018-07-21T04:52:46.079Z,56.12
2018-07-21T04:55:13.590Z,56.64
2018-07-21T04:57:40.950Z,55.96
2018-07-21T05:00:08.296Z,55.23
2018-07-21T05:02:35.593Z,55.03
2018-07-21T05:05:03.056Z,53.82
2018-07-21T05:07:30.588Z,53.06
2018-07-21T05:09:58.630Z,52.92
2018-07-21T05:12:25.995Z,52.45
2018-07-21T05:14:53.583Z,52.11
2018-07-21T05:17:20.970Z,50.57
2018-07-21T05:19:48.426Z,50.47
2018-07-21T05:22:15.766Z,49.64
2018-07-21T05:24:43.163Z,48.24
2018-07-21T05:27:10.597Z,47.82
2018-07-21T05:29:37.959Z,47.58
2018-07-21T05:32:05.339Z,47.24
2018-07-21T05:34:32.809Z,46.74
2018-07-21T05:37:00.744Z,45.96
2018-07-21T05:39:28.153Z,45.50
2018-07-21T05:41:56.290Z,45.36
2018-07-21T05:44:24.243Z,44.75
2018-07-21T05:46:51.581Z,44.14
2018-07-21T05:49:19.776Z,43.64
2018-07-21T05:51:47.090Z,43.86
2018-07-21T05:54:14.410Z,44.11
2018-07-21T05:56:41.745Z,43.56
2018-07-21T05:59:09.146Z,43.63
2018-07-21T06:01:36.663Z,42.27
2018-07-21T06:04:04.049Z,41.82
2018-07-21T06:06:31.391Z,41.52
2018-07-21T06:08:58.842Z,41.35
2018-07-21T06:11:26.306Z,40.92
2018-07-21T06:13:53.663Z,40.94
2018-07-21T06:16:21.983Z,40.27
2018-07-21T06:18:49.411Z,40.81
2018-07-21T06:21:16.693Z,40.12
2018-07-21T06:23:44.056Z,40.35
2018-07-21T06:26:11.518Z,40.52
2018-07-21T06:28:38.910Z,39.63
2018-07-21T06:31:06.518Z,39.88
2018-07-21T06:33:33.965Z,39.16
2018-07-21T06:36:01.354Z,38.18
2018-07-21T06:38:28.715Z,37.86
2018-07-21T06:40:58.395Z,37.05
2018-07-21T06:43:26.474Z,36.88
2018-07-21T06:45:53.803Z,37.15
2018-07-21T06:48:21.908Z,36.47
2018-07-21T06:50:50.142Z,36.76
2018-07-21T06:53:17.458Z,36.49
2018-07-21T06:55:44.848Z,36.26
2018-07-21T06:58:12.572Z,35.29
2018-07-21T07:00:46.488Z,34.89
2018-07-21T07:03:13.987Z,35.35
2018-07-21T07:05:41.390Z,35.01
2018-07-21T07:08:09.438Z,34.89
2018-07-21T07:10:36.787Z,34.15
2018-07-21T07:13:04.142Z,34.00
2018-07-21T07:15:32.002Z,34.06
2018-07-21T07:17:59.331Z,33.93
2018-07-21T07:20:26.718Z,32.59
2018-07-21T07:22:54.175Z,32.19
2018-07-21T07:25:21.577Z,32.79
2018-07-21T07:27:48.892Z,32.70
2018-07-21T07:30:16.217Z,32.55
2018-07-21T07:32:43.538Z,31.99
2018-07-21T07:35:11.031Z,32.19
2018-07-21T07:37:38.416Z,32.27
2018-07-21T07:40:05.932Z,31.37
2018-07-21T07:42:33.588Z,31.32
2018-07-21T07:45:01.237Z,31.77
2018-07-21T07:47:28.519Z,31.57
2018-07-21T07:49:55.907Z,32.47
2018-07-21T07:52:23.194Z,32.13
2018-07-21T07:54:50.573Z,32.17
2018-07-21T07:57:17.889Z,32.21
2018-07-21T07:59:45.253Z,33.00
2018-07-21T08:02:12.567Z,33.07
2018-07-21T08:04:39.889Z,33.15
2018-07-21T08:07:07.258Z,32.65
2018-07-21T08:09:34.574Z,32.80
2018-07-21T08:12:01.871Z,33.71
2018-07-21T08:14:30.252Z,33.19
2018-07-21T08:16:57.585Z,33.52
2018-07-21T08:19:24.932Z,33.33
2018-07-21T08:21:52.259Z,33.73
2018-07-21T08:24:21.575Z,33.00
2018-07-21T08:26:50.324Z,33.36
2018-07-21T08:29:18.217Z,34.04
2018-07-21T08:31:45.564Z,34.23
2018-07-21T08:34:12.881Z,34.27
2018-07-21T08:36:40.222Z,34.93
2018-07-21T08:39:08.993Z,34.51
2018-07-21T08:41:36.626Z,34.21
2018-07-21T08:44:03.991Z,34.29
2018-07-21T08:46:31.350Z,34.67
2018-07-21T08:48:58.714Z,34.71
2018-07-21T08:51:26.064Z,34.55
2018-07-21T08:53:53.351Z,34.85
2018-07-21T08:56:21.822Z,34.37
2018-07-21T08:58:49.736Z,33.94
2018-07-21T09:01:17.051Z,34.05
2018-07-21T09:03:44.501Z,34.15
2018-07-21T09:06:11.810Z,33.80
2018-07-21T09:08:39.158Z,33.26
2018-07-21T09:11:06.521Z,33.56
2018-07-21T09:13:33.885Z,33.41
2018-07-21T09:16:01.225Z,33.19
2018-07-21T09:18:29.322Z,32.81
2018-07-21T09:20:57.258Z,34.25
2018-07-21T09:23:24.499Z,34.28
2018-07-21T09:25:52.076Z,34.03
2018-07-21T09:28:19.408Z,34.35
2018-07-21T09:30:47.259Z,34.02
2018-07-21T09:33:15.088Z,33.64
2018-07-21T09:35:42.446Z,33.23
2018-07-21T09:38:09.769Z,32.92
2018-07-21T09:40:37.712Z,33.69
2018-07-21T09:43:05.560Z,33.64
2018-07-21T09:45:32.877Z,33.93
2018-07-21T09:48:01.036Z,34.04
2018-07-21T09:50:28.480Z,33.55
2018-07-21T09:52:55.934Z,35.02
2018-07-21T09:55:23.129Z,34.83
2018-07-21T09:57:51.227Z,35.16
2018-07-21T10:00:24.259Z,35.47
2018-07-21T10:02:51.928Z,35.85
2018-07-21T10:05:20.446Z,35.72
2018-07-21T10:07:47.899Z,36.54
2018-07-21T10:10:16.125Z,36.92
2018-07-21T10:12:43.548Z,37.18
2018-07-21T10:15:10.861Z,37.10
2018-07-21T10:17:38.407Z,38.37
2018-07-21T10:20:05.770Z,38.66
2018-07-21T10:22:33.112Z,38.90
2018-07-21T10:25:06.105Z,39.95
2018-07-21T10:27:39.956Z,40.51
2018-07-21T10:30:07.538Z,41.28
2018-07-21T10:32:34.957Z,41.28
2018-07-21T10:35:02.271Z,41.65
2018-07-21T10:37:29.649Z,41.85
2018-07-21T10:39:56.959Z,42.71
2018-07-21T10:42:24.326Z,43.35
2018-07-21T10:44:51.703Z,44.07
2018-07-21T10:47:19.373Z,44.04
2018-07-21T10:49:47.711Z,44.38
2018-07-21T10:52:15.759Z,44.38
2018-07-21T10:54:43.754Z,44.92
2018-07-21T10:57:12.886Z,45.89
2018-07-21T10:59:40.210Z,46.50
2018-07-21T11:02:07.629Z,46.94
2018-07-21T11:04:34.931Z,47.46
2018-07-21T11:07:02.286Z,47.80
2018-07-21T11:09:29.738Z,48.80
2018-07-21T11:11:57.029Z,48.59
2018-07-21T11:14:24.326Z,48.26
2018-07-21T11:16:51.741Z,48.18
2018-07-21T11:19:19.074Z,48.80
2018-07-21T11:21:46.780Z,48.65
2018-07-21T11:24:14.451Z,48.20
2018-07-21T11:26:41.757Z,48.52
2018-07-21T11:29:10.145Z,48.21
2018-07-21T11:31:37.984Z,48.36
2018-07-21T11:34:05.510Z,48.61
2018-07-21T11:36:33.101Z,48.88
2018-07-21T11:39:00.468Z,49.21
2018-07-21T11:41:27.813Z,49.09
2018-07-21T11:43:55.138Z,49.75
2018-07-21T11:46:22.410Z,50.52
2018-07-21T11:48:49.778Z,51.57
2018-07-21T11:51:17.176Z,53.55
2018-07-21T11:53:44.759Z,54.56
2018-07-21T11:56:12.530Z,58.05
2018-07-21T11:58:39.871Z,57.36
2018-07-21T12:01:07.722Z,59.51
2018-07-21T12:03:36.105Z,58.52
2018-07-21T12:06:03.569Z,58.58
2018-07-21T12:08:30.906Z,58.96
2018-07-21T12:10:58.211Z,58.72
2018-07-21T12:13:27.325Z,58.54
2018-07-21T12:16:04.740Z,57.78
2018-07-21T12:18:32.141Z,57.63
2018-07-21T12:21:00.144Z,57.68
2018-07-21T12:23:28.119Z,57.39
2018-07-21T12:25:56.702Z,57.90
2018-07-21T12:28:24.301Z,57.35
2018-07-21T12:30:51.658Z,57.26
2018-07-21T12:33:19.013Z,56.97
2018-07-21T12:35:46.358Z,57.61
2018-07-21T12:38:14.311Z,57.65
2018-07-21T12:40:42.401Z,58.69
2018-07-21T12:43:09.833Z,59.28
2018-07-21T12:45:37.740Z,60.77
2018-07-21T12:48:05.076Z,63.22
2018-07-21T12:50:32.909Z,63.55
2018-07-21T12:53:00.285Z,63.55
2018-07-21T12:55:27.793Z,65.37
2018-07-21T12:57:55.219Z,64.06
2018-07-21T13:00:22.700Z,65.90
2018-07-21T13:02:50.096Z,67.27
2018-07-21T13:05:17.884Z,65.78
2018-07-21T13:07:45.346Z,66.03
2018-07-21T13:10:14.374Z,67.14
2018-07-21T13:12:41.762Z,67.72
2018-07-21T13:15:09.207Z,68.37
2018-07-21T13:17:36.672Z,70.06
2018-07-21T13:20:05.091Z,69.88
2018-07-21T13:22:33.374Z,69.31
2018-07-21T13:25:00.769Z,69.49
2018-07-21T13:27:28.078Z,70.55
2018-07-21T13:29:55.559Z,70.81
2018-07-21T13:32:22.895Z,71.07
2018-07-21T13:34:50.805Z,70.76
2018-07-21T13:37:18.194Z,71.38
2018-07-21T13:39:46.317Z,71.18
2018-07-21T13:42:13.779Z,70.82
2018-07-21T13:44:41.178Z,70.65
2018-07-21T13:47:08.553Z,71.09
2018-07-21T13:49:36.078Z,70.78
2018-07-21T13:52:04.135Z,70.37
2018-07-21T13:54:31.404Z,70.08
2018-07-21T13:56:59.009Z,68.89
2018-07-21T13:59:26.410Z,70.31
2018-07-21T14:01:53.823Z,69.20
2018-07-21T14:04:21.186Z,69.05
2018-07-21T14:06:49.169Z,69.25
2018-07-21T14:09:16.648Z,69.14
2018-07-21T14:11:43.993Z,67.95
2018-07-21T14:14:11.393Z,68.59
2018-07-21T14:16:38.738Z,69.50
2018-07-21T14:19:06.314Z,67.42
2018-07-21T14:21:33.635Z,67.53
2018-07-21T14:24:01.184Z,68.03
2018-07-21T14:26:28.444Z,69.71
2018-07-21T14:28:55.875Z,68.10
2018-07-21T14:31:23.579Z,68.45
2018-07-21T14:33:51.880Z,67.20
2018-07-21T14:36:19.436Z,68.47
2018-07-21T14:38:46.794Z,69.39
2018-07-21T14:41:14.108Z,68.55
2018-07-21T14:43:41.510Z,69.11
2018-07-21T14:46:09.426Z,68.67
2018-07-21T14:48:36.851Z,70.54
2018-07-21T14:51:04.263Z,69.71
2018-07-21T14:53:31.979Z,70.03
2018-07-21T14:55:59.330Z,68.87
2018-07-21T14:58:26.683Z,68.26
2018-07-21T15:00:54.125Z,69.89
2018-07-21T15:03:21.694Z,70.18
2018-07-21T15:05:49.082Z,69.38
2018-07-21T15:08:16.441Z,68.72
2018-07-21T15:10:43.862Z,68.75
2018-07-21T15:13:11.907Z,67.97
2018-07-21T15:15:39.482Z,68.22
2018-07-21T15:18:06.860Z,69.05
2018-07-21T15:20:35.042Z,70.84
2018-07-21T15:23:02.651Z,69.39
2018-07-21T15:25:30.048Z,71.71
2018-07-21T15:27:57.384Z,72.30
2018-07-21T15:30:24.741Z,72.52
2018-07-21T15:32:52.227Z,73.41
2018-07-21T15:35:19.607Z,73.74
2018-07-21T15:37:47.012Z,72.93
2018-07-21T15:40:14.397Z,72.73
2018-07-21T15:42:41.738Z,73.02
2018-07-21T15:45:09.728Z,75.35
2018-07-21T15:47:37.107Z,75.61
2018-07-21T15:50:04.691Z,75.35
2018-07-21T15:52:32.092Z,76.14
2018-07-21T15:54:59.490Z,76.99
2018-07-21T15:57:27.652Z,76.80
2018-07-21T15:59:55.050Z,75.62
2018-07-21T16:02:22.472Z,75.57
2018-07-21T16:04:49.880Z,75.57
2018-07-21T16:07:17.343Z,76.50
2018-07-21T16:09:45.127Z,77.16
2018-07-21T16:12:12.512Z,75.82
2018-07-21T16:14:39.995Z,75.68
2018-07-21T16:17:07.304Z,75.21
2018-07-21T16:19:34.644Z,75.52
2018-07-21T16:22:02.024Z,76.19
2018-07-21T16:24:29.354Z,75.22
2018-07-21T16:26:56.753Z,75.80
2018-07-21T16:29:24.170Z,75.97
2018-07-21T16:31:52.255Z,75.75
2018-07-21T16:34:20.934Z,75.74
2018-07-21T16:36:48.326Z,75.58
2018-07-21T16:39:16.151Z,77.32
2018-07-21T16:41:43.522Z,78.17
2018-07-21T16:44:11.376Z,78.20
2018-07-21T16:46:39.102Z,77.94
2018-07-21T16:49:06.480Z,78.09
2018-07-21T16:51:34.018Z,78.07
2018-07-21T16:54:01.449Z,78.37
2018-07-21T16:56:29.611Z,77.58
2018-07-21T16:58:57.246Z,78.51
2018-07-21T17:01:24.565Z,78.83
2018-07-21T17:03:52.257Z,79.05
2018-07-21T17:06:19.762Z,79.00
2018-07-21T17:08:48.216Z,79.17
2018-07-21T17:11:15.597Z,78.41
2018-07-21T17:13:43.006Z,77.98
2018-07-21T17:16:10.396Z,78.21
2018-07-21T17:18:38.798Z,78.32
2018-07-21T17:21:06.156Z,79.10
2018-07-21T17:23:33.813Z,78.74
2018-07-21T17:26:01.242Z,79.07
2018-07-21T17:28:28.584Z,79.57
2018-07-21T17:30:56.966Z,79.69
2018-07-21T17:33:24.387Z,79.57
2018-07-21T17:35:52.776Z,78.95
2018-07-21T17:38:21.395Z,79.31
2018-07-21T17:40:49.236Z,79.87
2018-07-21T17:43:16.678Z,79.52
2018-07-21T17:45:44.380Z,79.68
2018-07-21T17:48:11.742Z,80.09
2018-07-21T17:50:39.306Z,80.33
2018-07-21T17:53:07.167Z,79.25
2018-07-21T17:55:35.011Z,79.76
2018-07-21T17:58:03.303Z,80.19
2018-07-21T18:00:30.745Z,79.68
2018-07-21T18:02:58.350Z,79.95
2018-07-21T18:05:26.515Z,80.72
2018-07-21T18:07:53.719Z,81.03
2018-07-21T18:10:21.721Z,81.03
2018-07-21T18:12:49.219Z,81.28
2018-07-21T18:15:16.554Z,80.99
2018-07-21T18:17:43.961Z,81.18
2018-07-21T18:20:11.331Z,81.60
2018-07-21T18:22:38.711Z,81.12
2018-07-21T18:25:06.135Z,81.48
2018-07-21T18:27:33.465Z,81.19
2018-07-21T18:30:01.684Z,81.47
2018-07-21T18:32:30.378Z,81.22
2018-07-21T18:34:58.000Z,81.59
2018-07-21T18:37:25.542Z,81.82
2018-07-21T18:39:53.261Z,82.48
2018-07-21T18:42:21.801Z,82.63
2018-07-21T18:44:49.473Z,82.77
2018-07-21T18:47:18.971Z,82.84
2018-07-21T18:49:47.849Z,83.10
2018-07-21T18:52:15.478Z,83.66
2018-07-21T18:54:44.442Z,83.69
2018-07-21T18:57:12.511Z,83.63
2018-07-21T18:59:40.105Z,82.88
2018-07-21T19:02:07.708Z,83.03
2018-07-21T19:04:36.910Z,83.04
2018-07-21T19:07:06.146Z,83.14
2018-07-21T19:09:33.866Z,83.51
2018-07-21T19:12:07.050Z,83.40
2018-07-21T19:14:34.941Z,83.17
2018-07-21T19:17:05.965Z,82.84
2018-07-21T19:19:39.443Z,82.88
2018-07-21T19:22:08.684Z,83.80
2018-07-21T19:24:37.085Z,83.67
2018-07-21T19:27:10.743Z,83.30
2018-07-21T19:29:38.147Z,83.40
2018-07-21T19:32:11.331Z,83.04
2018-07-21T19:34:39.624Z,83.47
2018-07-21T19:38:10.934Z,83.62
2018-07-21T19:40:38.298Z,83.48
2018-07-21T19:43:05.940Z,83.34
2018-07-21T19:45:33.515Z,83.55
2018-07-21T19:48:00.893Z,83.33
2018-07-21T19:50:28.266Z,83.64
2018-07-21T19:52:56.384Z,83.61
2018-07-21T19:55:23.804Z,83.63
2018-07-21T19:57:51.885Z,83.57
2018-07-21T20:00:19.475Z,83.76
2018-07-21T20:02:47.529Z,83.64
2018-07-21T20:05:15.233Z,83.76
2018-07-21T20:07:42.936Z,83.98
2018-07-21T20:10:10.394Z,83.65
2018-07-21T20:12:37.905Z,83.33
2018-07-21T20:15:05.298Z,83.50
2018-07-21T20:17:32.999Z,83.56
2018-07-21T20:20:00.452Z,83.19
2018-07-21T20:22:27.729Z,83.51
2018-07-21T20:24:55.298Z,83.81
2018-07-21T20:27:23.561Z,84.16
2018-07-21T20:29:51.018Z,83.58
2018-07-21T20:32:18.485Z,83.72
2018-07-21T20:34:45.744Z,84.30
2018-07-21T20:37:12.971Z,84.22
2018-07-21T20:39:40.300Z,84.51
2018-07-21T20:42:07.581Z,84.68
2018-07-21T20:44:34.891Z,84.56
2018-07-21T20:47:02.162Z,84.02
2018-07-21T20:49:29.827Z,83.67
2018-07-21T20:51:57.189Z,83.56
2018-07-21T20:54:24.512Z,83.64
2018-07-21T20:56:51.837Z,83.63
2018-07-21T20:59:19.840Z,83.87
2018-07-21T21:01:47.360Z,83.56
2018-07-21T21:04:14.746Z,83.79
2018-07-21T21:06:42.097Z,83.38
2018-07-21T21:09:10.601Z,83.25
2018-07-21T21:11:38.148Z,83.52
2018-07-21T21:14:05.460Z,83.88
2018-07-21T21:16:32.723Z,83.60
2018-07-21T21:19:00.017Z,83.64
2018-07-21T21:21:27.248Z,83.28
2018-07-21T21:23:54.542Z,83.50
2018-07-21T21:26:22.418Z,83.63
2018-07-21T21:28:49.670Z,83.07
2018-07-21T21:31:16.886Z,82.75
2018-07-21T21:33:44.171Z,82.15
2018-07-21T21:36:11.460Z,81.49
2018-07-21T21:38:38.775Z,81.67
2018-07-21T21:41:06.033Z,80.59
2018-07-21T21:43:33.324Z,79.96
2018-07-21T21:46:00.621Z,80.28
2018-07-21T21:48:27.940Z,80.12
2018-07-21T21:50:55.259Z,80.01
2018-07-21T21:53:22.533Z,80.00
2018-07-21T21:55:49.849Z,80.38
2018-07-21T21:58:17.249Z,80.70
2018-07-21T22:01:05.555Z,80.54
2018-07-21T22:03:33.644Z,80.96
2018-07-21T22:06:01.119Z,81.50
2018-07-21T22:08:29.153Z,82.22
2018-07-21T22:10:56.486Z,83.13
2018-07-21T22:13:23.921Z,83.35
2018-07-21T22:15:51.677Z,83.26
2018-07-21T22:18:19.134Z,82.74
2018-07-21T22:20:46.467Z,80.82
2018-07-21T22:23:13.743Z,79.57
2018-07-21T22:25:41.149Z,79.92
2018-07-21T22:28:08.446Z,79.48
2018-07-21T22:30:35.781Z,78.92
2018-07-21T22:33:03.500Z,79.42
2018-07-21T22:35:32.052Z,81.65
2018-07-21T22:37:59.671Z,83.05
2018-07-21T22:40:27.295Z,83.09
2018-07-21T22:42:54.587Z,82.72
2018-07-21T22:45:21.897Z,82.31
2018-07-21T22:47:49.157Z,81.98
2018-07-21T22:50:16.491Z,81.84
2018-07-21T22:52:43.945Z,82.31
2018-07-21T22:55:11.345Z,82.44
2018-07-21T22:57:38.854Z,82.77
2018-07-21T23:00:06.971Z,82.14
2018-07-21T23:02:34.486Z,82.07
2018-07-21T23:05:01.733Z,81.54
2018-07-21T23:07:28.993Z,80.63
2018-07-21T23:09:56.315Z,80.78
2018-07-21T23:12:23.584Z,81.28
2018-07-21T23:14:51.010Z,79.77
2018-07-21T23:17:18.288Z,79.47
2018-07-21T23:19:45.521Z,81.02
2018-07-21T23:22:12.758Z,80.58
2018-07-21T23:24:40.002Z,79.58
2018-07-21T23:27:07.264Z,81.02
2018-07-21T23:29:34.523Z,79.98
2018-07-21T23:32:01.992Z,79.34
2018-07-21T23:34:29.228Z,78.59
2018-07-21T23:36:56.629Z,78.71
2018-07-21T23:39:23.863Z,78.85
2018-07-21T23:41:51.350Z,78.32
2018-07-21T23:44:18.717Z,79.39
2018-07-21T23:46:46.010Z,79.50
2018-07-21T23:49:13.242Z,79.56
2018-07-21T23:51:40.512Z,79.22
2018-07-21T23:54:08.146Z,78.92
2018-07-21T23:56:35.539Z,80.21
2018-07-21T23:59:03.262Z,80.87
